sensor_id;sensor_type;location;lat;lon;timestamp;P1;durP1;ratioP1;P2;durP2;ratioP2
18780;SDS011;9519;51.890;8.970;2023-07-13T00:04:59;5.13;;;2.05;;
18780;SDS011;9519;51.890;8.970;2023-07-13T00:10:01;6.28;;;2.40;;
18780;SDS011;9519;51.890;8.970;2023-07-13T00:15:09;7.20;;;2.40;;
18780;SDS011;9519;51.890;8.970;2023-07-13T00:20:16;10.10;;;2.35;;
18780;SDS011;9519;51.890;8.970;2023-07-13T00:25:22;7.75;;;2.20;;
18780;SDS011;9519;51.890;8.970;2023-07-13T00:30:27;6.72;;;2.40;;
18780;SDS011;9519;51.890;8.970;2023-07-13T00:35:30;6.72;;;2.08;;
18780;SDS011;9519;51.890;8.970;2023-07-13T00:40:33;4.88;;;1.90;;
18780;SDS011;9519;51.890;8.970;2023-07-13T00:51:20;6.28;;;2.22;;
18780;SDS011;9519;51.890;8.970;2023-07-13T00:56:28;7.00;;;2.13;;
18780;SDS011;9519;51.890;8.970;2023-07-13T01:01:32;5.35;;;2.10;;
18780;SDS011;9519;51.890;8.970;2023-07-13T01:06:38;7.55;;;2.40;;
18780;SDS011;9519;51.890;8.970;2023-07-13T01:11:44;6.07;;;2.33;;
18780;SDS011;9519;51.890;8.970;2023-07-13T01:16:47;7.45;;;2.33;;
18780;SDS011;9519;51.890;8.970;2023-07-13T01:21:52;6.75;;;2.60;;
18780;SDS011;9519;51.890;8.970;2023-07-13T01:26:55;9.63;;;2.90;;
18780;SDS011;9519;51.890;8.970;2023-07-13T01:31:57;8.85;;;2.63;;
18780;SDS011;9519;51.890;8.970;2023-07-13T01:37:01;11.13;;;2.60;;
18780;SDS011;9519;51.890;8.970;2023-07-13T01:42:04;6.88;;;2.60;;
18780;SDS011;9519;51.890;8.970;2023-07-13T01:47:06;8.55;;;3.15;;
18780;SDS011;9519;51.890;8.970;2023-07-13T01:52:10;7.72;;;2.78;;
18780;SDS011;9519;51.890;8.970;2023-07-13T01:57:12;6.85;;;3.05;;
18780;SDS011;9519;51.890;8.970;2023-07-13T02:02:14;9.10;;;3.58;;
18780;SDS011;9519;51.890;8.970;2023-07-13T02:07:18;8.38;;;2.90;;
18780;SDS011;9519;51.890;8.970;2023-07-13T02:12:20;400.73;;;54.92;;
18780;SDS011;9519;51.890;8.970;2023-07-13T02:17:22;1999.90;;;999.90;;
18780;SDS011;9519;51.890;8.970;2023-07-13T02:22:25;1999.90;;;999.90;;
18780;SDS011;9519;51.890;8.970;2023-07-13T02:27:27;1999.90;;;999.90;;
18780;SDS011;9519;51.890;8.970;2023-07-13T02:32:29;1812.97;;;216.40;;
18780;SDS011;9519;51.890;8.970;2023-07-13T02:37:36;1999.90;;;999.90;;
18780;SDS011;9519;51.890;8.970;2023-07-13T02:42:38;1536.00;;;763.10;;
18780;SDS011;9519;51.890;8.970;2023-07-13T02:47:41;1739.70;;;214.68;;
18780;SDS011;9519;51.890;8.970;2023-07-13T02:52:45;12.13;;;4.28;;
18780;SDS011;9519;51.890;8.970;2023-07-13T02:57:47;11.00;;;4.15;;
18780;SDS011;9519;51.890;8.970;2023-07-13T03:02:49;9.27;;;4.20;;
18780;SDS011;9519;51.890;8.970;2023-07-13T03:07:54;10.88;;;4.10;;
18780;SDS011;9519;51.890;8.970;2023-07-13T03:12:56;9.10;;;3.90;;
18780;SDS011;9519;51.890;8.970;2023-07-13T03:17:58;10.40;;;4.10;;
18780;SDS011;9519;51.890;8.970;2023-07-13T03:23:01;11.70;;;4.88;;
18780;SDS011;9519;51.890;8.970;2023-07-13T03:28:04;9.82;;;4.55;;
18780;SDS011;9519;51.890;8.970;2023-07-13T03:33:06;12.10;;;4.80;;
18780;SDS011;9519;51.890;8.970;2023-07-13T03:38:10;9.37;;;3.33;;
18780;SDS011;9519;51.890;8.970;2023-07-13T03:43:12;7.23;;;2.90;;
18780;SDS011;9519;51.890;8.970;2023-07-13T03:48:14;8.87;;;2.83;;
18780;SDS011;9519;51.890;8.970;2023-07-13T03:53:17;8.80;;;3.27;;
18780;SDS011;9519;51.890;8.970;2023-07-13T03:58:25;10.00;;;3.80;;
18780;SDS011;9519;51.890;8.970;2023-07-13T04:03:33;9.47;;;3.70;;
18780;SDS011;9519;51.890;8.970;2023-07-13T04:08:37;6.57;;;2.50;;
18780;SDS011;9519;51.890;8.970;2023-07-13T04:13:39;6.03;;;2.53;;
18780;SDS011;9519;51.890;8.970;2023-07-13T04:18:41;8.40;;;3.23;;
18780;SDS011;9519;51.890;8.970;2023-07-13T04:23:45;11.70;;;3.80;;
18780;SDS011;9519;51.890;8.970;2023-07-13T04:28:47;12.18;;;3.53;;
18780;SDS011;9519;51.890;8.970;2023-07-13T04:33:50;12.00;;;3.73;;
18780;SDS011;9519;51.890;8.970;2023-07-13T04:38:54;13.63;;;3.33;;
18780;SDS011;9519;51.890;8.970;2023-07-13T04:43:56;8.67;;;2.50;;
18780;SDS011;9519;51.890;8.970;2023-07-13T04:48:58;6.65;;;2.28;;
18780;SDS011;9519;51.890;8.970;2023-07-13T04:54:02;7.35;;;2.38;;
18780;SDS011;9519;51.890;8.970;2023-07-13T04:59:08;8.67;;;3.13;;
18780;SDS011;9519;51.890;8.970;2023-07-13T05:04:10;8.37;;;2.13;;
18780;SDS011;9519;51.890;8.970;2023-07-13T05:09:13;9.30;;;2.03;;
18780;SDS011;9519;51.890;8.970;2023-07-13T05:14:15;9.77;;;2.30;;
18780;SDS011;9519;51.890;8.970;2023-07-13T05:19:17;8.67;;;2.07;;
18780;SDS011;9519;51.890;8.970;2023-07-13T05:24:21;7.60;;;2.63;;
18780;SDS011;9519;51.890;8.970;2023-07-13T05:29:23;6.85;;;1.92;;
18780;SDS011;9519;51.890;8.970;2023-07-13T05:34:25;11.07;;;1.83;;
18780;SDS011;9519;51.890;8.970;2023-07-13T05:39:29;9.82;;;2.25;;
18780;SDS011;9519;51.890;8.970;2023-07-13T05:44:31;9.35;;;1.90;;
18780;SDS011;9519;51.890;8.970;2023-07-13T05:49:33;7.20;;;1.80;;
18780;SDS011;9519;51.890;8.970;2023-07-13T05:54:36;7.28;;;2.00;;
18780;SDS011;9519;51.890;8.970;2023-07-13T05:59:39;9.35;;;2.22;;
18780;SDS011;9519;51.890;8.970;2023-07-13T06:04:41;7.35;;;1.90;;
18780;SDS011;9519;51.890;8.970;2023-07-13T06:09:44;6.38;;;1.65;;
18780;SDS011;9519;51.890;8.970;2023-07-13T06:14:46;9.88;;;2.58;;
18780;SDS011;9519;51.890;8.970;2023-07-13T06:19:48;7.63;;;2.47;;
18780;SDS011;9519;51.890;8.970;2023-07-13T06:24:52;9.80;;;2.10;;
18780;SDS011;9519;51.890;8.970;2023-07-13T06:29:54;8.77;;;2.00;;
18780;SDS011;9519;51.890;8.970;2023-07-13T06:34:56;10.90;;;2.20;;
18780;SDS011;9519;51.890;8.970;2023-07-13T06:40:00;11.35;;;2.00;;
18780;SDS011;9519;51.890;8.970;2023-07-13T06:45:02;10.65;;;2.20;;
18780;SDS011;9519;51.890;8.970;2023-07-13T06:50:06;11.97;;;2.47;;
18780;SDS011;9519;51.890;8.970;2023-07-13T06:55:10;9.00;;;2.08;;
18780;SDS011;9519;51.890;8.970;2023-07-13T07:00:13;12.18;;;2.30;;
18780;SDS011;9519;51.890;8.970;2023-07-13T07:05:16;10.10;;;1.98;;
18780;SDS011;9519;51.890;8.970;2023-07-13T07:10:23;9.35;;;2.95;;
18780;SDS011;9519;51.890;8.970;2023-07-13T07:15:25;7.38;;;2.20;;
18780;SDS011;9519;51.890;8.970;2023-07-13T07:20:28;10.43;;;2.28;;
18780;SDS011;9519;51.890;8.970;2023-07-13T07:25:32;9.93;;;2.67;;
18780;SDS011;9519;51.890;8.970;2023-07-13T07:30:37;8.60;;;2.72;;
18780;SDS011;9519;51.890;8.970;2023-07-13T07:35:43;11.20;;;2.83;;
18780;SDS011;9519;51.890;8.970;2023-07-13T07:40:46;12.15;;;2.70;;
18780;SDS011;9519;51.890;8.970;2023-07-13T07:45:48;11.18;;;2.40;;
18780;SDS011;9519;51.890;8.970;2023-07-13T07:50:50;9.20;;;2.15;;
18780;SDS011;9519;51.890;8.970;2023-07-13T07:55:54;8.90;;;2.60;;
18780;SDS011;9519;51.890;8.970;2023-07-13T08:01:01;9.35;;;2.28;;
18780;SDS011;9519;51.890;8.970;2023-07-13T08:06:05;7.43;;;2.42;;
18780;SDS011;9519;51.890;8.970;2023-07-13T08:11:09;8.63;;;2.20;;
18780;SDS011;9519;51.890;8.970;2023-07-13T08:16:15;14.80;;;2.97;;
18780;SDS011;9519;51.890;8.970;2023-07-13T08:21:18;8.43;;;2.80;;
18780;SDS011;9519;51.890;8.970;2023-07-13T08:26:21;11.48;;;3.00;;
18780;SDS011;9519;51.890;8.970;2023-07-13T08:31:23;8.15;;;2.33;;
18780;SDS011;9519;51.890;8.970;2023-07-13T08:36:27;8.88;;;2.70;;
18780;SDS011;9519;51.890;8.970;2023-07-13T08:41:32;9.90;;;2.33;;
18780;SDS011;9519;51.890;8.970;2023-07-13T08:46:37;9.50;;;3.08;;
18780;SDS011;9519;51.890;8.970;2023-07-13T08:51:43;11.30;;;3.00;;
18780;SDS011;9519;51.890;8.970;2023-07-13T08:56:57;7.20;;;2.53;;
18780;SDS011;9519;51.890;8.970;2023-07-13T09:02:14;7.80;;;2.45;;
18780;SDS011;9519;51.890;8.970;2023-07-13T09:07:30;10.82;;;2.50;;
18780;SDS011;9519;51.890;8.970;2023-07-13T09:12:54;13.75;;;2.75;;
18780;SDS011;9519;51.890;8.970;2023-07-13T09:18:18;7.55;;;2.28;;
18780;SDS011;9519;51.890;8.970;2023-07-13T09:23:29;10.35;;;2.30;;
18780;SDS011;9519;51.890;8.970;2023-07-13T09:28:37;10.25;;;2.50;;
18780;SDS011;9519;51.890;8.970;2023-07-13T09:33:45;10.05;;;2.50;;
18780;SDS011;9519;51.890;8.970;2023-07-13T09:38:47;8.20;;;2.03;;
18780;SDS011;9519;51.890;8.970;2023-07-13T09:44:11;6.22;;;2.10;;
18780;SDS011;9519;51.890;8.970;2023-07-13T09:49:15;9.30;;;2.20;;
18780;SDS011;9519;51.890;8.970;2023-07-13T09:54:20;10.52;;;2.67;;
18780;SDS011;9519;51.890;8.970;2023-07-13T09:59:28;9.10;;;2.50;;
18780;SDS011;9519;51.890;8.970;2023-07-13T10:04:34;8.85;;;2.28;;
18780;SDS011;9519;51.890;8.970;2023-07-13T10:09:36;8.82;;;2.53;;
18780;SDS011;9519;51.890;8.970;2023-07-13T10:14:40;8.07;;;2.00;;
18780;SDS011;9519;51.890;8.970;2023-07-13T10:19:43;6.07;;;1.65;;
18780;SDS011;9519;51.890;8.970;2023-07-13T10:24:49;8.65;;;1.77;;
18780;SDS011;9519;51.890;8.970;2023-07-13T10:29:53;12.43;;;2.17;;
18780;SDS011;9519;51.890;8.970;2023-07-13T10:35:02;6.60;;;1.70;;
18780;SDS011;9519;51.890;8.970;2023-07-13T10:40:11;12.68;;;2.13;;
18780;SDS011;9519;51.890;8.970;2023-07-13T10:45:20;8.05;;;2.03;;
18780;SDS011;9519;51.890;8.970;2023-07-13T10:50:25;9.13;;;2.42;;
18780;SDS011;9519;51.890;8.970;2023-07-13T10:55:34;7.65;;;2.08;;
18780;SDS011;9519;51.890;8.970;2023-07-13T11:01:00;8.30;;;2.10;;
18780;SDS011;9519;51.890;8.970;2023-07-13T11:06:10;5.10;;;1.77;;
18780;SDS011;9519;51.890;8.970;2023-07-13T11:11:34;7.93;;;1.85;;
18780;SDS011;9519;51.890;8.970;2023-07-13T11:16:43;7.28;;;1.90;;
18780;SDS011;9519;51.890;8.970;2023-07-13T11:27:27;7.15;;;1.95;;
18780;SDS011;9519;51.890;8.970;2023-07-13T11:32:38;7.22;;;2.13;;
18780;SDS011;9519;51.890;8.970;2023-07-13T11:37:41;8.57;;;2.10;;
18780;SDS011;9519;51.890;8.970;2023-07-13T11:42:43;6.50;;;1.90;;
18780;SDS011;9519;51.890;8.970;2023-07-13T11:47:47;10.35;;;2.13;;
18780;SDS011;9519;51.890;8.970;2023-07-13T11:52:50;6.90;;;1.83;;
18780;SDS011;9519;51.890;8.970;2023-07-13T11:57:56;8.65;;;2.20;;
18780;SDS011;9519;51.890;8.970;2023-07-13T12:03:04;6.68;;;2.03;;
18780;SDS011;9519;51.890;8.970;2023-07-13T12:08:10;7.38;;;2.20;;
18780;SDS011;9519;51.890;8.970;2023-07-13T12:13:12;6.60;;;1.77;;
18780;SDS011;9519;51.890;8.970;2023-07-13T12:18:18;8.63;;;2.25;;
18780;SDS011;9519;51.890;8.970;2023-07-13T12:23:24;10.43;;;2.28;;
18780;SDS011;9519;51.890;8.970;2023-07-13T12:28:33;7.00;;;1.83;;
18780;SDS011;9519;51.890;8.970;2023-07-13T12:33:39;6.65;;;1.70;;
18780;SDS011;9519;51.890;8.970;2023-07-13T12:38:44;6.20;;;1.83;;
18780;SDS011;9519;51.890;8.970;2023-07-13T12:43:47;7.97;;;1.88;;
18780;SDS011;9519;51.890;8.970;2023-07-13T12:48:51;9.05;;;1.75;;
18780;SDS011;9519;51.890;8.970;2023-07-13T12:53:56;4.00;;;1.55;;
18780;SDS011;9519;51.890;8.970;2023-07-13T12:59:09;6.70;;;1.60;;
18780;SDS011;9519;51.890;8.970;2023-07-13T13:04:21;5.85;;;1.70;;
18780;SDS011;9519;51.890;8.970;2023-07-13T13:09:24;7.38;;;2.28;;
18780;SDS011;9519;51.890;8.970;2023-07-13T13:14:26;10.65;;;4.38;;
18780;SDS011;9519;51.890;8.970;2023-07-13T13:19:30;6.10;;;1.85;;
18780;SDS011;9519;51.890;8.970;2023-07-13T13:24:32;6.15;;;1.60;;
18780;SDS011;9519;51.890;8.970;2023-07-13T13:29:36;7.13;;;2.15;;
18780;SDS011;9519;51.890;8.970;2023-07-13T13:34:42;9.00;;;1.80;;
18780;SDS011;9519;51.890;8.970;2023-07-13T13:39:44;6.47;;;2.03;;
18780;SDS011;9519;51.890;8.970;2023-07-13T13:44:47;5.65;;;1.88;;
18780;SDS011;9519;51.890;8.970;2023-07-13T13:49:50;7.43;;;2.60;;
18780;SDS011;9519;51.890;8.970;2023-07-13T13:54:52;7.15;;;1.90;;
18780;SDS011;9519;51.890;8.970;2023-07-13T13:59:56;11.25;;;2.20;;
18780;SDS011;9519;51.890;8.970;2023-07-13T14:04:59;5.10;;;1.85;;
18780;SDS011;9519;51.890;8.970;2023-07-13T14:10:09;9.57;;;2.17;;
18780;SDS011;9519;51.890;8.970;2023-07-13T14:15:17;7.00;;;2.35;;
18780;SDS011;9519;51.890;8.970;2023-07-13T14:20:25;6.68;;;2.28;;
18780;SDS011;9519;51.890;8.970;2023-07-13T14:25:28;9.00;;;1.70;;
18780;SDS011;9519;51.890;8.970;2023-07-13T14:30:30;4.75;;;2.00;;
18780;SDS011;9519;51.890;8.970;2023-07-13T14:35:33;7.20;;;2.20;;
18780;SDS011;9519;51.890;8.970;2023-07-13T14:40:36;8.63;;;2.30;;
18780;SDS011;9519;51.890;8.970;2023-07-13T14:45:39;7.50;;;2.20;;
18780;SDS011;9519;51.890;8.970;2023-07-13T14:50:45;8.50;;;2.45;;
18780;SDS011;9519;51.890;8.970;2023-07-13T14:55:47;9.88;;;2.33;;
18780;SDS011;9519;51.890;8.970;2023-07-13T15:00:50;7.60;;;2.40;;
18780;SDS011;9519;51.890;8.970;2023-07-13T15:05:56;7.78;;;2.30;;
18780;SDS011;9519;51.890;8.970;2023-07-13T15:10:58;7.20;;;2.60;;
18780;SDS011;9519;51.890;8.970;2023-07-13T15:16:01;7.40;;;2.72;;
18780;SDS011;9519;51.890;8.970;2023-07-13T15:21:08;7.75;;;3.13;;
18780;SDS011;9519;51.890;8.970;2023-07-13T15:26:14;6.07;;;2.65;;
18780;SDS011;9519;51.890;8.970;2023-07-13T15:31:18;9.70;;;3.72;;
18780;SDS011;9519;51.890;8.970;2023-07-13T15:36:24;138.95;;;120.20;;
18780;SDS011;9519;51.890;8.970;2023-07-13T15:41:28;9.20;;;5.70;;
18780;SDS011;9519;51.890;8.970;2023-07-13T15:46:30;7.95;;;5.50;;
18780;SDS011;9519;51.890;8.970;2023-07-13T15:51:34;9.60;;;8.38;;
18780;SDS011;9519;51.890;8.970;2023-07-13T15:56:36;13.10;;;5.93;;
18780;SDS011;9519;51.890;8.970;2023-07-13T16:01:40;10.80;;;5.35;;
18780;SDS011;9519;51.890;8.970;2023-07-13T16:06:47;9.15;;;4.72;;
18780;SDS011;9519;51.890;8.970;2023-07-13T16:11:50;11.57;;;4.45;;
18780;SDS011;9519;51.890;8.970;2023-07-13T16:16:55;6.40;;;3.83;;
18780;SDS011;9519;51.890;8.970;2023-07-13T16:21:58;8.25;;;3.97;;
18780;SDS011;9519;51.890;8.970;2023-07-13T16:27:05;8.98;;;4.28;;
18780;SDS011;9519;51.890;8.970;2023-07-13T16:32:10;6.70;;;3.45;;
18780;SDS011;9519;51.890;8.970;2023-07-13T16:37:16;1999.90;;;999.90;;
18780;SDS011;9519;51.890;8.970;2023-07-13T16:42:22;1999.90;;;999.90;;
18780;SDS011;9519;51.890;8.970;2023-07-13T16:47:25;1999.90;;;999.90;;
18780;SDS011;9519;51.890;8.970;2023-07-13T16:52:29;1999.90;;;999.90;;
18780;SDS011;9519;51.890;8.970;2023-07-13T16:57:32;1999.90;;;999.90;;
18780;SDS011;9519;51.890;8.970;2023-07-13T17:02:38;1999.90;;;999.90;;
18780;SDS011;9519;51.890;8.970;2023-07-13T17:07:42;1999.90;;;999.90;;
18780;SDS011;9519;51.890;8.970;2023-07-13T17:12:46;1999.90;;;999.90;;
18780;SDS011;9519;51.890;8.970;2023-07-13T17:17:48;1999.90;;;999.90;;
18780;SDS011;9519;51.890;8.970;2023-07-13T17:22:53;1999.90;;;999.90;;
18780;SDS011;9519;51.890;8.970;2023-07-13T17:27:55;1999.90;;;999.90;;
18780;SDS011;9519;51.890;8.970;2023-07-13T17:32:57;1999.90;;;999.90;;
18780;SDS011;9519;51.890;8.970;2023-07-13T17:38:02;1999.90;;;999.90;;
18780;SDS011;9519;51.890;8.970;2023-07-13T17:43:06;1999.90;;;999.90;;
18780;SDS011;9519;51.890;8.970;2023-07-13T17:48:08;1999.90;;;999.90;;
18780;SDS011;9519;51.890;8.970;2023-07-13T17:53:14;175.60;;;65.88;;
18780;SDS011;9519;51.890;8.970;2023-07-13T17:58:20;1599.72;;;779.53;;
18780;SDS011;9519;51.890;8.970;2023-07-13T18:03:23;1264.05;;;385.27;;
18780;SDS011;9519;51.890;8.970;2023-07-13T18:08:33;46.78;;;44.58;;
18780;SDS011;9519;51.890;8.970;2023-07-13T18:13:35;5.50;;;1.80;;
18780;SDS011;9519;51.890;8.970;2023-07-13T18:18:40;4.55;;;1.60;;
18780;SDS011;9519;51.890;8.970;2023-07-13T18:23:44;4.60;;;1.60;;
18780;SDS011;9519;51.890;8.970;2023-07-13T18:28:47;47.50;;;8.18;;
18780;SDS011;9519;51.890;8.970;2023-07-13T18:33:50;4.82;;;1.90;;
18780;SDS011;9519;51.890;8.970;2023-07-13T18:38:56;133.68;;;19.33;;
18780;SDS011;9519;51.890;8.970;2023-07-13T18:43:59;5.43;;;2.10;;
18780;SDS011;9519;51.890;8.970;2023-07-13T18:49:01;6.05;;;2.13;;
18780;SDS011;9519;51.890;8.970;2023-07-13T18:54:08;6.10;;;2.72;;
18780;SDS011;9519;51.890;8.970;2023-07-13T18:59:14;6.13;;;3.75;;
18780;SDS011;9519;51.890;8.970;2023-07-13T19:04:25;7.63;;;3.78;;
18780;SDS011;9519;51.890;8.970;2023-07-13T19:09:31;10.45;;;5.10;;
18780;SDS011;9519;51.890;8.970;2023-07-13T19:14:33;9.40;;;4.03;;
18780;SDS011;9519;51.890;8.970;2023-07-13T19:19:35;1999.90;;;999.90;;
18780;SDS011;9519;51.890;8.970;2023-07-13T19:24:39;1999.90;;;999.90;;
18780;SDS011;9519;51.890;8.970;2023-07-13T19:29:41;1999.90;;;999.90;;
18780;SDS011;9519;51.890;8.970;2023-07-13T19:34:43;9.13;;;4.32;;
18780;SDS011;9519;51.890;8.970;2023-07-13T19:39:47;11.27;;;5.40;;
18780;SDS011;9519;51.890;8.970;2023-07-13T19:44:53;7.88;;;4.15;;
18780;SDS011;9519;51.890;8.970;2023-07-13T19:49:58;7.65;;;4.25;;
18780;SDS011;9519;51.890;8.970;2023-07-13T19:55:04;8.20;;;5.07;;
18780;SDS011;9519;51.890;8.970;2023-07-13T20:00:14;11.40;;;5.63;;
18780;SDS011;9519;51.890;8.970;2023-07-13T20:05:19;10.63;;;6.07;;
18780;SDS011;9519;51.890;8.970;2023-07-13T20:10:25;7.47;;;4.82;;
18780;SDS011;9519;51.890;8.970;2023-07-13T20:15:43;10.73;;;4.70;;
18780;SDS011;9519;51.890;8.970;2023-07-13T20:20:46;8.23;;;5.55;;
18780;SDS011;9519;51.890;8.970;2023-07-13T20:25:50;11.23;;;5.47;;
18780;SDS011;9519;51.890;8.970;2023-07-13T20:30:52;7.93;;;5.47;;
18780;SDS011;9519;51.890;8.970;2023-07-13T20:36:00;8.82;;;5.53;;
18780;SDS011;9519;51.890;8.970;2023-07-13T20:41:09;8.70;;;4.88;;
18780;SDS011;9519;51.890;8.970;2023-07-13T20:46:13;10.70;;;4.20;;
18780;SDS011;9519;51.890;8.970;2023-07-13T20:51:19;6.90;;;3.83;;
18780;SDS011;9519;51.890;8.970;2023-07-13T20:56:27;7.97;;;3.45;;
18780;SDS011;9519;51.890;8.970;2023-07-13T21:01:30;9.23;;;3.78;;
18780;SDS011;9519;51.890;8.970;2023-07-13T21:06:37;8.07;;;3.90;;
18780;SDS011;9519;51.890;8.970;2023-07-13T21:11:40;7.30;;;3.78;;
18780;SDS011;9519;51.890;8.970;2023-07-13T21:16:42;7.65;;;4.10;;
18780;SDS011;9519;51.890;8.970;2023-07-13T21:26:50;5.97;;;3.03;;
18780;SDS011;9519;51.890;8.970;2023-07-13T21:31:52;7.28;;;3.30;;
18780;SDS011;9519;51.890;8.970;2023-07-13T21:36:54;9.85;;;3.42;;
18780;SDS011;9519;51.890;8.970;2023-07-13T21:42:01;9.68;;;3.80;;
18780;SDS011;9519;51.890;8.970;2023-07-13T21:47:03;6.40;;;3.00;;
18780;SDS011;9519;51.890;8.970;2023-07-13T21:52:10;7.10;;;3.77;;
18780;SDS011;9519;51.890;8.970;2023-07-13T21:57:18;6.07;;;3.15;;
18780;SDS011;9519;51.890;8.970;2023-07-13T22:02:20;8.18;;;4.32;;
18780;SDS011;9519;51.890;8.970;2023-07-13T22:07:22;7.32;;;3.55;;
18780;SDS011;9519;51.890;8.970;2023-07-13T22:12:26;5.13;;;3.28;;
18780;SDS011;9519;51.890;8.970;2023-07-13T22:17:28;5.60;;;3.53;;
18780;SDS011;9519;51.890;8.970;2023-07-13T22:22:30;6.68;;;3.75;;
18780;SDS011;9519;51.890;8.970;2023-07-13T22:27:33;9.53;;;4.27;;
18780;SDS011;9519;51.890;8.970;2023-07-13T22:32:36;6.43;;;3.57;;
18780;SDS011;9519;51.890;8.970;2023-07-13T22:37:38;7.40;;;3.95;;
18780;SDS011;9519;51.890;8.970;2023-07-13T22:42:42;7.80;;;4.20;;
18780;SDS011;9519;51.890;8.970;2023-07-13T22:47:45;8.07;;;3.93;;
18780;SDS011;9519;51.890;8.970;2023-07-13T22:52:49;6.87;;;4.20;;
18780;SDS011;9519;51.890;8.970;2023-07-13T22:57:52;7.50;;;3.77;;
18780;SDS011;9519;51.890;8.970;2023-07-13T23:02:54;7.47;;;4.23;;
18780;SDS011;9519;51.890;8.970;2023-07-13T23:07:57;8.80;;;4.00;;
18780;SDS011;9519;51.890;8.970;2023-07-13T23:13:00;7.03;;;4.23;;
18780;SDS011;9519;51.890;8.970;2023-07-13T23:18:02;7.47;;;4.30;;
18780;SDS011;9519;51.890;8.970;2023-07-13T23:23:08;7.80;;;4.27;;
18780;SDS011;9519;51.890;8.970;2023-07-13T23:28:14;8.93;;;4.37;;
18780;SDS011;9519;51.890;8.970;2023-07-13T23:33:18;9.70;;;4.57;;
18780;SDS011;9519;51.890;8.970;2023-07-13T23:38:25;9.63;;;4.70;;
18780;SDS011;9519;51.890;8.970;2023-07-13T23:43:29;7.47;;;4.67;;
18780;SDS011;9519;51.890;8.970;2023-07-13T23:48:31;9.67;;;4.20;;
18780;SDS011;9519;51.890;8.970;2023-07-13T23:53:34;9.67;;;4.87;;
18780;SDS011;9519;51.890;8.970;2023-07-13T23:58:37;7.70;;;4.20;;
